Hertfordshire — ZDJS5 — position and weather

sailwx.info

Track history (hours):
 
Tides and Currents Weather Stations Pressure Air Temp Water Temp Dewpoint Dewpoint Depression Visibility Wind Speed Wind Dir Waves Ship Positions

Hertfordshire

Last reported at 2014-Oct-01 19:13 UTC. Time now 2014-Oct-02 14:30 UTC.
Position N 50°33' E 000°03'.

Length 83 m; draft 4.6 m.

Type: Cargo ship. MMSI: 236563000.

Date/timePositionNaut miles runAvg speedWind from/ knotsBaromVisibWave heightAir tempDewpointWater temp
2014-Oct-01 19:13N 50°33' E 000°03'910.9
2014-Oct-01 18:24N 50°36' E 000°16'910.4
2014-Oct-01 17:33N 50°38' E 000°30'10 9.7
2014-Oct-01 16:33N 50°43' E 000°43'9 8.9
2014-Oct-01 15:33N 50°48' E 000°55'12 8.5
2014-Oct-01 14:11N 50°55' E 001°09'6 8.9
2014-Oct-01 13:33N 50°59' E 001°16'1010.2
2014-Oct-01 12:33N 51°05' E 001°28'1110.7
2014-Oct-01 11:33N 51°15' E 001°37'1111.2
2014-Oct-01 10:33N 51°25' E 001°30'1110.6
2014-Oct-01 09:33N 51°29' E 001°14'1111.0
2014-Oct-01 08:33N 51°29' E 000°57'1212.1
2014-Oct-01 07:33N 51°30' E 000°38'1111.2
2014-Oct-01 06:34N 51°27' E 000°20'7 6.7
2014-Oct-01 05:33N 51°30' E 000°10'0 0.0
2014-Oct-01 04:33N 51°30' E 000°10'0 0.0
2014-Oct-01 03:33N 51°30' E 000°10'0 0.0
2014-Oct-01 02:33N 51°30' E 000°10'0 0.0
2014-Oct-01 01:33N 51°30' E 000°10'0 0.0
2014-Oct-01 00:33N 51°30' E 000°10'0 0.0
2014-Sep-30 23:33N 51°30' E 000°10'0 0.0
2014-Sep-30 22:33N 51°30' E 000°10'0 0.0
2014-Sep-30 21:33N 51°30' E 000°10'0 0.0
2014-Sep-30 20:33N 51°30' E 000°10'0 0.0
2014-Sep-30 19:33N 51°30' E 000°10'0 0.0
2014-Sep-30 18:33N 51°30' E 000°10'0 0.0
2014-Sep-30 17:33N 51°30' E 000°10'0 0.0
2014-Sep-30 16:33N 51°30' E 000°10'0 0.0
2014-Sep-30 15:33N 51°30' E 000°10'0 0.0
2014-Sep-30 14:33N 51°30' E 000°10'0 0.0
2014-Sep-30 13:33N 51°30' E 000°10'0 0.0
2014-Sep-30 12:33N 51°30' E 000°10'0 0.0
2014-Sep-30 11:33N 51°30' E 000°10'0 0.0
2014-Sep-30 10:33N 51°30' E 000°10'0 0.0
2014-Sep-30 09:33N 51°30' E 000°10'0 0.0
2014-Sep-30 08:33N 51°30' E 000°10'0 0.0
2014-Sep-30 07:33N 51°30' E 000°10'0 0.0
2014-Sep-30 06:33N 51°30' E 000°10'0 0.0
2014-Sep-30 05:33N 51°30' E 000°10'0 0.0
2014-Sep-30 04:33N 51°30' E 000°10'0 0.0
2014-Sep-30 03:33N 51°30' E 000°10'0 0.0
2014-Sep-30 02:33N 51°30' E 000°10'0 0.0
2014-Sep-30 01:33N 51°30' E 000°10'0 0.0
2014-Sep-30 00:33N 51°30' E 000°10'0 0.0
2014-Sep-29 23:30N 51°30' E 000°10'0 0.0
2014-Sep-29 22:33N 51°30' E 000°10'0 0.0
2014-Sep-29 21:33N 51°30' E 000°10'0 0.0
2014-Sep-29 20:33N 51°30' E 000°10'0 0.0
2014-Sep-29 19:33N 51°30' E 000°10'0 0.0
2014-Sep-29 18:33N 51°30' E 000°10'0 0.0
2014-Sep-29 17:33N 51°30' E 000°10'1 0.7
2014-Sep-29 16:33N 51°29' E 000°11'8 8.3
2014-Sep-29 15:34N 51°27' E 000°24'8 8.1
2014-Sep-29 14:33N 51°30' E 000°36'9 9.3
2014-Sep-29 13:33N 51°30' E 000°51'8 7.9
2014-Sep-29 12:33N 51°33' E 001°03'1212.3
2014-Sep-29 11:33N 51°41' E 001°18'1312.7
2014-Sep-29 10:33N 51°49' E 001°34'1211.6
2014-Sep-29 09:33N 51°58' E 001°44'1211.6
2014-Sep-29 08:33N 52°10' E 001°47'1110.6
2014-Sep-29 07:33N 52°20' E 001°50'9 9.4
2014-Sep-29 06:33N 52°29' E 001°52'9 8.5
2014-Sep-29 05:33N 52°38' E 001°54'7 7.3
2014-Sep-29 04:33N 52°45' E 001°53'8 8.4
2014-Sep-29 03:33N 52°50' E 001°42'8 8.4
2014-Sep-29 02:33N 52°54' E 001°30'9 8.7
2014-Sep-29 01:33N 52°59' E 001°17'2110.1
2014-Sep-28 23:32N 53°11' E 000°50'1010.3
2014-Sep-28 22:32N 53°19' E 000°38'1010.1
2014-Sep-28 21:33N 53°26' E 000°27'1010.3
2014-Sep-28 20:33N 53°32' E 000°13'10 9.6
2014-Sep-28 19:33N 53°36' W 000°02'6 6.1
2014-Sep-28 18:33N 53°38' W 000°11'0 0.2
2014-Sep-28 17:29N 53°38' W 000°12'0 0.0
2014-Sep-28 16:26N 53°38' W 000°12'0 0.0
2014-Sep-28 15:23N 53°38' W 000°12'0 0.0
2014-Sep-28 14:32N 53°38' W 000°12'0 0.0
2014-Sep-28 13:32N 53°38' W 000°12'0 0.0
2014-Sep-28 12:32N 53°38' W 000°12'0 0.0
2014-Sep-28 11:32N 53°38' W 000°12'0 0.0
2014-Sep-28 10:32N 53°38' W 000°12'0 0.0
2014-Sep-28 09:26N 53°38' W 000°12'0 0.0
2014-Sep-28 08:32N 53°38' W 000°12'0 0.0
2014-Sep-28 07:26N 53°38' W 000°12'0 0.0
2014-Sep-28 06:32N 53°38' W 000°12'0 0.0
2014-Sep-28 05:32N 53°38' W 000°12'0 0.0
2014-Sep-28 04:32N 53°38' W 000°12'0 0.0
2014-Sep-28 03:26N 53°38' W 000°12'0 0.0
2014-Sep-28 02:26N 53°38' W 000°12'0 0.0
2014-Sep-28 01:32N 53°38' W 000°12'0 0.0
2014-Sep-28 00:32N 53°38' W 000°12'0 0.0
2014-Sep-27 23:32N 53°38' W 000°12'0 0.0
2014-Sep-27 22:29N 53°38' W 000°12'0 0.0
2014-Sep-27 21:29N 53°38' W 000°12'0 0.0
2014-Sep-27 20:29N 53°38' W 000°12'0 0.0
2014-Sep-27 19:32N 53°38' W 000°12'0 0.0
2014-Sep-27 18:23N 53°38' W 000°12'0 0.0
2014-Sep-27 17:32N 53°38' W 000°12'0 0.0
2014-Sep-27 16:23N 53°38' W 000°12'0 0.0
2014-Sep-27 15:32N 53°38' W 000°12'0 0.0
2014-Sep-27 14:26N 53°38' W 000°12'0 0.0
2014-Sep-27 13:29N 53°38' W 000°12'0 0.0
2014-Sep-27 12:29N 53°38' W 000°12'0 0.0
2014-Sep-27 11:32N 53°38' W 000°12'0 0.0
2014-Sep-27 10:26N 53°38' W 000°12'0 0.0
2014-Sep-27 09:32N 53°38' W 000°12'0 0.0
2014-Sep-27 08:26N 53°38' W 000°12'0 0.0
2014-Sep-27 07:29N 53°38' W 000°12'0 0.0
2014-Sep-27 06:32N 53°38' W 000°12'0 0.0
2014-Sep-27 05:17N 53°38' W 000°12'0 0.0
2014-Sep-27 04:32N 53°38' W 000°12'0 0.0
2014-Sep-27 03:32N 53°38' W 000°12'0 0.0
2014-Sep-27 02:32N 53°38' W 000°12'0 0.0
2014-Sep-27 01:32N 53°38' W 000°12'0 0.0
2014-Sep-27 00:32N 53°38' W 000°12'0 0.0
2014-Sep-26 23:26N 53°38' W 000°12'0 0.0
2014-Sep-26 22:29N 53°38' W 000°12'0 0.0
2014-Sep-26 21:32N 53°38' W 000°12'0 0.0
2014-Sep-26 20:26N 53°38' W 000°12'0 0.0
2014-Sep-26 19:32N 53°38' W 000°12'0 0.0
2014-Sep-26 18:32N 53°38' W 000°12'0 0.0
2014-Sep-26 17:32N 53°38' W 000°12'1 0.7
2014-Sep-26 16:33N 53°38' W 000°11'1110.6
2014-Sep-26 15:33N 53°34' E 000°06'9 9.1
2014-Sep-26 14:34N 53°31' E 000°20'4010.0
2014-Sep-26 10:33N 53°03' E 001°08'8 8.4
2014-Sep-26 09:33N 52°58' E 001°20'7 7.5
2014-Sep-26 08:33N 52°54' E 001°30'7 7.2
2014-Sep-26 07:33N 52°50' E 001°40'8 7.7
2014-Sep-26 06:33N 52°46' E 001°51'9 9.3
2014-Sep-26 05:33N 52°38' E 001°60'63 9.8
2014-Sep-25 23:07N 51°46' E 002°55'5 9.2
2014-Sep-25 22:33N 51°45' E 003°04'8 8.1
2014-Sep-25 21:33N 51°42' E 003°16'8 8.4
2014-Sep-25 20:33N 51°36' E 003°24'9 8.7
2014-Sep-25 19:33N 51°28' E 003°31'7 6.8
2014-Sep-25 18:33N 51°25' E 003°40'7 7.4
2014-Sep-25 17:33N 51°20' E 003°49'2 1.6
2014-Sep-25 16:19N 51°18' E 003°50'0 0.0
2014-Sep-25 15:25N 51°18' E 003°50'0 0.1
2014-Sep-25 14:28N 51°18' E 003°50'0 0.0
2014-Sep-25 13:25N 51°18' E 003°50'0 0.0
2014-Sep-25 12:25N 51°18' E 003°50'0 0.0
2014-Sep-25 11:31N 51°18' E 003°51'0 0.0
2014-Sep-25 10:31N 51°18' E 003°50'0 0.0
2014-Sep-25 09:31N 51°18' E 003°51'0 0.0
2014-Sep-25 08:31N 51°18' E 003°51'0 0.0
2014-Sep-25 07:25N 51°18' E 003°50'0 0.0
2014-Sep-25 06:13N 51°18' E 003°50'0 0.0
2014-Sep-25 05:31N 51°18' E 003°50'0 0.0
2014-Sep-25 04:22N 51°18' E 003°50'0 0.0
2014-Sep-25 03:31N 51°18' E 003°50'0 0.0
2014-Sep-25 02:31N 51°18' E 003°50'0 0.0
2014-Sep-25 01:31N 51°18' E 003°50'0 0.0
2014-Sep-25 00:31N 51°18' E 003°50'0 0.0
2014-Sep-24 23:33N 51°18' E 003°50'1 0.7
2014-Sep-24 22:34N 51°19' E 003°50'2 1.7
2014-Sep-24 21:34N 51°20' E 003°49'9 8.5
2014-Sep-24 20:34N 51°26' E 003°39'8 7.5
2014-Sep-24 19:33N 51°30' E 003°29'9 9.2
2014-Sep-24 18:33N 51°38' E 003°21'66 5.4
2014-Sep-24 06:21N 52°28' E 002°11'911.5
2014-Sep-24 05:33N 52°36' E 002°03'1110.9
2014-Sep-24 04:33N 52°45' E 001°53'1010.3
2014-Sep-24 03:33N 52°50' E 001°38'9 9.3
2014-Sep-24 02:33N 52°55' E 001°25'9 9.0
2014-Sep-24 01:33N 53°00' E 001°12'35 8.7
2014-Sep-23 21:30N 53°27' E 000°35'8 8.6
2014-Sep-23 20:33N 53°35' E 000°32'9 9.3
2014-Sep-23 19:32N 53°44' E 000°26'1010.4
2014-Sep-23 18:33N 53°53' E 000°18'1111.2
2014-Sep-23 17:33N 54°03' E 000°08'1212.1
2014-Sep-23 16:33N 54°13' W 000°03'1212.3
2014-Sep-23 15:34N 54°23' W 000°15'1212.2
2014-Sep-23 14:33N 54°33' W 000°28'1411.6
2014-Sep-23 13:20N 54°43' W 000°44'911.2
2014-Sep-23 12:33N 54°49' W 000°55'1110.8
2014-Sep-23 11:33N 54°57' W 001°08'22 9.9
2014-Sep-23 09:22N 55°19' W 001°14'40 9.6
2014-Sep-23 05:11N 55°51' W 001°55'710.8
2014-Sep-23 04:33N 55°56' W 002°04'1111.2
2014-Sep-23 03:33N 56°01' W 002°22'1111.3
2014-Sep-23 02:33N 56°06' W 002°40'1110.7
2014-Sep-23 01:33N 56°06' W 002°59'5 5.0
2014-Sep-23 00:28N 56°07' W 003°09'0 0.0
2014-Sep-22 23:31N 56°07' W 003°09'0 0.0
2014-Sep-22 22:31N 56°07' W 003°09'0 0.0
2014-Sep-22 21:34N 56°07' W 003°09'0 0.0
2014-Sep-22 20:34N 56°07' W 003°09'0 0.0
2014-Sep-22 19:34N 56°07' W 003°09'0 0.0
2014-Sep-22 18:34N 56°07' W 003°09'0 0.0
2014-Sep-22 17:34N 56°07' W 003°09'0 0.0
2014-Sep-22 16:34N 56°07' W 003°09'0 0.0
2014-Sep-22 15:34N 56°07' W 003°09'0 0.0
2014-Sep-22 14:25N 56°07' W 003°09'0 0.0
2014-Sep-22 13:25N 56°07' W 003°09'0 0.0
2014-Sep-22 12:28N 56°07' W 003°09'0 0.0
2014-Sep-22 11:28N 56°07' W 003°09'0 0.0
2014-Sep-22 10:32N 56°07' W 003°09'0 0.0
2014-Sep-22 09:32N 56°07' W 003°09'0 0.0
2014-Sep-22 08:32N 56°07' W 003°09'0 0.0
2014-Sep-22 07:32N 56°07' W 003°09'0 0.0
2014-Sep-22 06:32N 56°07' W 003°09'0 0.0
2014-Sep-22 05:33N 56°07' W 003°09'0 0.0
2014-Sep-22 04:33N 56°07' W 003°09'0 0.0
2014-Sep-22 03:33N 56°07' W 003°09'0 0.0
2014-Sep-22 02:27N 56°07' W 003°09'0 0.0
2014-Sep-22 01:30N 56°07' W 003°09'1 0.7
2014-Sep-22 00:30N 56°06' W 003°08'1 0.8
2014-Sep-21 23:33N 56°06' W 003°07'0 0.0
2014-Sep-21 22:24N 56°06' W 003°07'0 0.0
2014-Sep-21 21:24N 56°06' W 003°07'0 0.0
2014-Sep-21 20:27N 56°06' W 003°07'0 0.0
2014-Sep-21 19:24N 56°06' W 003°07'  
Track history (hours):
 
Tides and Currents Weather Stations Pressure Air Temp Water Temp Dewpoint Dewpoint Depression Visibility Wind Speed Wind Dir Waves Ship Positions

Hertfordshire

Last reported at 2014-Oct-01 19:13 UTC. Time now 2014-Oct-02 14:30 UTC.
Position N 50°33' E 000°03'.

Length 83 m; draft 4.6 m.

Type: Cargo ship. MMSI: 236563000.

Date/timePositionNaut miles runAvg speedWind from/ knotsBaromVisibWave heightAir tempDewpointWater temp
2014-Oct-01 19:13N 50°33' E 000°03'910.9
2014-Oct-01 18:24N 50°36' E 000°16'910.4
2014-Oct-01 17:33N 50°38' E 000°30'10 9.7
2014-Oct-01 16:33N 50°43' E 000°43'9 8.9
2014-Oct-01 15:33N 50°48' E 000°55'12 8.5
2014-Oct-01 14:11N 50°55' E 001°09'6 8.9
2014-Oct-01 13:33N 50°59' E 001°16'1010.2
2014-Oct-01 12:33N 51°05' E 001°28'1110.7
2014-Oct-01 11:33N 51°15' E 001°37'1111.2
2014-Oct-01 10:33N 51°25' E 001°30'1110.6
2014-Oct-01 09:33N 51°29' E 001°14'1111.0
2014-Oct-01 08:33N 51°29' E 000°57'1212.1
2014-Oct-01 07:33N 51°30' E 000°38'1111.2
2014-Oct-01 06:34N 51°27' E 000°20'7 6.7
2014-Oct-01 05:33N 51°30' E 000°10'0 0.0
2014-Oct-01 04:33N 51°30' E 000°10'0 0.0
2014-Oct-01 03:33N 51°30' E 000°10'0 0.0
2014-Oct-01 02:33N 51°30' E 000°10'0 0.0
2014-Oct-01 01:33N 51°30' E 000°10'0 0.0
2014-Oct-01 00:33N 51°30' E 000°10'0 0.0
2014-Sep-30 23:33N 51°30' E 000°10'0 0.0
2014-Sep-30 22:33N 51°30' E 000°10'0 0.0
2014-Sep-30 21:33N 51°30' E 000°10'0 0.0
2014-Sep-30 20:33N 51°30' E 000°10'0 0.0
2014-Sep-30 19:33N 51°30' E 000°10'0 0.0
2014-Sep-30 18:33N 51°30' E 000°10'0 0.0
2014-Sep-30 17:33N 51°30' E 000°10'0 0.0
2014-Sep-30 16:33N 51°30' E 000°10'0 0.0
2014-Sep-30 15:33N 51°30' E 000°10'0 0.0
2014-Sep-30 14:33N 51°30' E 000°10'0 0.0
2014-Sep-30 13:33N 51°30' E 000°10'0 0.0
2014-Sep-30 12:33N 51°30' E 000°10'0 0.0
2014-Sep-30 11:33N 51°30' E 000°10'0 0.0
2014-Sep-30 10:33N 51°30' E 000°10'0 0.0
2014-Sep-30 09:33N 51°30' E 000°10'0 0.0
2014-Sep-30 08:33N 51°30' E 000°10'0 0.0
2014-Sep-30 07:33N 51°30' E 000°10'0 0.0
2014-Sep-30 06:33N 51°30' E 000°10'0 0.0
2014-Sep-30 05:33N 51°30' E 000°10'0 0.0
2014-Sep-30 04:33N 51°30' E 000°10'0 0.0
2014-Sep-30 03:33N 51°30' E 000°10'0 0.0
2014-Sep-30 02:33N 51°30' E 000°10'0 0.0
2014-Sep-30 01:33N 51°30' E 000°10'0 0.0
2014-Sep-30 00:33N 51°30' E 000°10'0 0.0
2014-Sep-29 23:30N 51°30' E 000°10'0 0.0
2014-Sep-29 22:33N 51°30' E 000°10'0 0.0
2014-Sep-29 21:33N 51°30' E 000°10'0 0.0
2014-Sep-29 20:33N 51°30' E 000°10'0 0.0
2014-Sep-29 19:33N 51°30' E 000°10'0 0.0
2014-Sep-29 18:33N 51°30' E 000°10'0 0.0
2014-Sep-29 17:33N 51°30' E 000°10'1 0.7
2014-Sep-29 16:33N 51°29' E 000°11'8 8.3
2014-Sep-29 15:34N 51°27' E 000°24'8 8.1
2014-Sep-29 14:33N 51°30' E 000°36'9 9.3
2014-Sep-29 13:33N 51°30' E 000°51'8 7.9
2014-Sep-29 12:33N 51°33' E 001°03'1212.3
2014-Sep-29 11:33N 51°41' E 001°18'1312.7
2014-Sep-29 10:33N 51°49' E 001°34'1211.6
2014-Sep-29 09:33N 51°58' E 001°44'1211.6
2014-Sep-29 08:33N 52°10' E 001°47'1110.6
2014-Sep-29 07:33N 52°20' E 001°50'9 9.4
2014-Sep-29 06:33N 52°29' E 001°52'9 8.5
2014-Sep-29 05:33N 52°38' E 001°54'7 7.3
2014-Sep-29 04:33N 52°45' E 001°53'8 8.4
2014-Sep-29 03:33N 52°50' E 001°42'8 8.4
2014-Sep-29 02:33N 52°54' E 001°30'9 8.7
2014-Sep-29 01:33N 52°59' E 001°17'2110.1
2014-Sep-28 23:32N 53°11' E 000°50'1010.3
2014-Sep-28 22:32N 53°19' E 000°38'1010.1
2014-Sep-28 21:33N 53°26' E 000°27'1010.3
2014-Sep-28 20:33N 53°32' E 000°13'10 9.6
2014-Sep-28 19:33N 53°36' W 000°02'6 6.1
2014-Sep-28 18:33N 53°38' W 000°11'0 0.2
2014-Sep-28 17:29N 53°38' W 000°12'0 0.0
2014-Sep-28 16:26N 53°38' W 000°12'0 0.0
2014-Sep-28 15:23N 53°38' W 000°12'0 0.0
2014-Sep-28 14:32N 53°38' W 000°12'0 0.0
2014-Sep-28 13:32N 53°38' W 000°12'0 0.0
2014-Sep-28 12:32N 53°38' W 000°12'0 0.0
2014-Sep-28 11:32N 53°38' W 000°12'0 0.0
2014-Sep-28 10:32N 53°38' W 000°12'0 0.0
2014-Sep-28 09:26N 53°38' W 000°12'0 0.0
2014-Sep-28 08:32N 53°38' W 000°12'0 0.0
2014-Sep-28 07:26N 53°38' W 000°12'0 0.0
2014-Sep-28 06:32N 53°38' W 000°12'0 0.0
2014-Sep-28 05:32N 53°38' W 000°12'0 0.0
2014-Sep-28 04:32N 53°38' W 000°12'0 0.0
2014-Sep-28 03:26N 53°38' W 000°12'0 0.0
2014-Sep-28 02:26N 53°38' W 000°12'0 0.0
2014-Sep-28 01:32N 53°38' W 000°12'0 0.0
2014-Sep-28 00:32N 53°38' W 000°12'0 0.0
2014-Sep-27 23:32N 53°38' W 000°12'0 0.0
2014-Sep-27 22:29N 53°38' W 000°12'0 0.0
2014-Sep-27 21:29N 53°38' W 000°12'0 0.0
2014-Sep-27 20:29N 53°38' W 000°12'0 0.0
2014-Sep-27 19:32N 53°38' W 000°12'0 0.0
2014-Sep-27 18:23N 53°38' W 000°12'0 0.0
2014-Sep-27 17:32N 53°38' W 000°12'0 0.0
2014-Sep-27 16:23N 53°38' W 000°12'0 0.0
2014-Sep-27 15:32N 53°38' W 000°12'0 0.0
2014-Sep-27 14:26N 53°38' W 000°12'0 0.0
2014-Sep-27 13:29N 53°38' W 000°12'0 0.0
2014-Sep-27 12:29N 53°38' W 000°12'0 0.0
2014-Sep-27 11:32N 53°38' W 000°12'0 0.0
2014-Sep-27 10:26N 53°38' W 000°12'0 0.0
2014-Sep-27 09:32N 53°38' W 000°12'0 0.0
2014-Sep-27 08:26N 53°38' W 000°12'0 0.0
2014-Sep-27 07:29N 53°38' W 000°12'0 0.0
2014-Sep-27 06:32N 53°38' W 000°12'0 0.0
2014-Sep-27 05:17N 53°38' W 000°12'0 0.0
2014-Sep-27 04:32N 53°38' W 000°12'0 0.0
2014-Sep-27 03:32N 53°38' W 000°12'0 0.0
2014-Sep-27 02:32N 53°38' W 000°12'0 0.0
2014-Sep-27 01:32N 53°38' W 000°12'0 0.0
2014-Sep-27 00:32N 53°38' W 000°12'0 0.0
2014-Sep-26 23:26N 53°38' W 000°12'0 0.0
2014-Sep-26 22:29N 53°38' W 000°12'0 0.0
2014-Sep-26 21:32N 53°38' W 000°12'0 0.0
2014-Sep-26 20:26N 53°38' W 000°12'0 0.0
2014-Sep-26 19:32N 53°38' W 000°12'0 0.0
2014-Sep-26 18:32N 53°38' W 000°12'0 0.0
2014-Sep-26 17:32N 53°38' W 000°12'1 0.7
2014-Sep-26 16:33N 53°38' W 000°11'1110.6
2014-Sep-26 15:33N 53°34' E 000°06'9 9.1
2014-Sep-26 14:34N 53°31' E 000°20'4010.0
2014-Sep-26 10:33N 53°03' E 001°08'8 8.4
2014-Sep-26 09:33N 52°58' E 001°20'7 7.5
2014-Sep-26 08:33N 52°54' E 001°30'7 7.2
2014-Sep-26 07:33N 52°50' E 001°40'8 7.7
2014-Sep-26 06:33N 52°46' E 001°51'9 9.3
2014-Sep-26 05:33N 52°38' E 001°60'63 9.8
2014-Sep-25 23:07N 51°46' E 002°55'5 9.2
2014-Sep-25 22:33N 51°45' E 003°04'8 8.1
2014-Sep-25 21:33N 51°42' E 003°16'8 8.4
2014-Sep-25 20:33N 51°36' E 003°24'9 8.7
2014-Sep-25 19:33N 51°28' E 003°31'7 6.8
2014-Sep-25 18:33N 51°25' E 003°40'7 7.4
2014-Sep-25 17:33N 51°20' E 003°49'2 1.6
2014-Sep-25 16:19N 51°18' E 003°50'0 0.0
2014-Sep-25 15:25N 51°18' E 003°50'0 0.1
2014-Sep-25 14:28N 51°18' E 003°50'0 0.0
2014-Sep-25 13:25N 51°18' E 003°50'0 0.0
2014-Sep-25 12:25N 51°18' E 003°50'0 0.0
2014-Sep-25 11:31N 51°18' E 003°51'0 0.0
2014-Sep-25 10:31N 51°18' E 003°50'0 0.0
2014-Sep-25 09:31N 51°18' E 003°51'0 0.0
2014-Sep-25 08:31N 51°18' E 003°51'0 0.0
2014-Sep-25 07:25N 51°18' E 003°50'0 0.0
2014-Sep-25 06:13N 51°18' E 003°50'0 0.0
2014-Sep-25 05:31N 51°18' E 003°50'0 0.0
2014-Sep-25 04:22N 51°18' E 003°50'0 0.0
2014-Sep-25 03:31N 51°18' E 003°50'0 0.0
2014-Sep-25 02:31N 51°18' E 003°50'0 0.0
2014-Sep-25 01:31N 51°18' E 003°50'0 0.0
2014-Sep-25 00:31N 51°18' E 003°50'0 0.0
2014-Sep-24 23:33N 51°18' E 003°50'1 0.7
2014-Sep-24 22:34N 51°19' E 003°50'2 1.7
2014-Sep-24 21:34N 51°20' E 003°49'9 8.5
2014-Sep-24 20:34N 51°26' E 003°39'8 7.5
2014-Sep-24 19:33N 51°30' E 003°29'9 9.2
2014-Sep-24 18:33N 51°38' E 003°21'66 5.4
2014-Sep-24 06:21N 52°28' E 002°11'911.5
2014-Sep-24 05:33N 52°36' E 002°03'1110.9
2014-Sep-24 04:33N 52°45' E 001°53'1010.3
2014-Sep-24 03:33N 52°50' E 001°38'9 9.3
2014-Sep-24 02:33N 52°55' E 001°25'9 9.0
2014-Sep-24 01:33N 53°00' E 001°12'35 8.7
2014-Sep-23 21:30N 53°27' E 000°35'8 8.6
2014-Sep-23 20:33N 53°35' E 000°32'9 9.3
2014-Sep-23 19:32N 53°44' E 000°26'1010.4
2014-Sep-23 18:33N 53°53' E 000°18'1111.2
2014-Sep-23 17:33N 54°03' E 000°08'1212.1
2014-Sep-23 16:33N 54°13' W 000°03'1212.3
2014-Sep-23 15:34N 54°23' W 000°15'1212.2
2014-Sep-23 14:33N 54°33' W 000°28'1411.6
2014-Sep-23 13:20N 54°43' W 000°44'911.2
2014-Sep-23 12:33N 54°49' W 000°55'1110.8
2014-Sep-23 11:33N 54°57' W 001°08'22 9.9
2014-Sep-23 09:22N 55°19' W 001°14'40 9.6
2014-Sep-23 05:11N 55°51' W 001°55'710.8
2014-Sep-23 04:33N 55°56' W 002°04'1111.2
2014-Sep-23 03:33N 56°01' W 002°22'1111.3
2014-Sep-23 02:33N 56°06' W 002°40'1110.7
2014-Sep-23 01:33N 56°06' W 002°59'5 5.0
2014-Sep-23 00:28N 56°07' W 003°09'0 0.0
2014-Sep-22 23:31N 56°07' W 003°09'0 0.0
2014-Sep-22 22:31N 56°07' W 003°09'0 0.0
2014-Sep-22 21:34N 56°07' W 003°09'0 0.0
2014-Sep-22 20:34N 56°07' W 003°09'0 0.0
2014-Sep-22 19:34N 56°07' W 003°09'0 0.0
2014-Sep-22 18:34N 56°07' W 003°09'0 0.0
2014-Sep-22 17:34N 56°07' W 003°09'0 0.0
2014-Sep-22 16:34N 56°07' W 003°09'0 0.0
2014-Sep-22 15:34N 56°07' W 003°09'0 0.0
2014-Sep-22 14:25N 56°07' W 003°09'0 0.0
2014-Sep-22 13:25N 56°07' W 003°09'0 0.0
2014-Sep-22 12:28N 56°07' W 003°09'0 0.0
2014-Sep-22 11:28N 56°07' W 003°09'0 0.0
2014-Sep-22 10:32N 56°07' W 003°09'0 0.0
2014-Sep-22 09:32N 56°07' W 003°09'0 0.0
2014-Sep-22 08:32N 56°07' W 003°09'0 0.0
2014-Sep-22 07:32N 56°07' W 003°09'0 0.0
2014-Sep-22 06:32N 56°07' W 003°09'0 0.0
2014-Sep-22 05:33N 56°07' W 003°09'0 0.0
2014-Sep-22 04:33N 56°07' W 003°09'0 0.0
2014-Sep-22 03:33N 56°07' W 003°09'0 0.0
2014-Sep-22 02:27N 56°07' W 003°09'0 0.0
2014-Sep-22 01:30N 56°07' W 003°09'1 0.7
2014-Sep-22 00:30N 56°06' W 003°08'1 0.8
2014-Sep-21 23:33N 56°06' W 003°07'0 0.0
2014-Sep-21 22:24N 56°06' W 003°07'0 0.0
2014-Sep-21 21:24N 56°06' W 003°07'0 0.0
2014-Sep-21 20:27N 56°06' W 003°07'0 0.0
2014-Sep-21 19:24N 56°06' W 003°07'  

Dump ship's entire track history